sensor_id;sensor_type;location;lat;lon;timestamp;pressure;altitude;pressure_sealevel;temperature;humidity
69749;BME280;57019;52.354;6.584;2022-12-07T00:01:07;101617.28;;;18.92;41.72
69749;BME280;57019;52.354;6.584;2022-12-07T00:03:34;101606.94;;;18.90;41.67
69749;BME280;57019;52.354;6.584;2022-12-07T00:06:01;101611.66;;;18.87;41.59
69749;BME280;57019;52.354;6.584;2022-12-07T00:08:27;101609.38;;;18.84;41.65
69749;BME280;57019;52.354;6.584;2022-12-07T00:10:52;101617.22;;;18.84;41.73
69749;BME280;57019;52.354;6.584;2022-12-07T00:13:18;101606.88;;;18.82;41.66
69749;BME280;57019;52.354;6.584;2022-12-07T00:15:44;101604.41;;;18.80;41.46
69749;BME280;57019;52.354;6.584;2022-12-07T00:18:09;101613.25;;;18.79;41.47
69749;BME280;57019;52.354;6.584;2022-12-07T00:20:34;101615.19;;;18.77;41.56
69749;BME280;57019;52.354;6.584;2022-12-07T00:23:00;101603.09;;;18.76;41.59
69749;BME280;57019;52.354;6.584;2022-12-07T00:25:25;101612.91;;;18.74;41.57
69749;BME280;57019;52.354;6.584;2022-12-07T00:27:52;101615.66;;;18.73;41.40
69749;BME280;57019;52.354;6.584;2022-12-07T00:30:18;101612.22;;;18.72;41.42
69749;BME280;57019;52.354;6.584;2022-12-07T00:32:44;101602.59;;;18.73;41.51
69749;BME280;57019;52.354;6.584;2022-12-07T00:35:09;101595.72;;;18.72;41.29
69749;BME280;57019;52.354;6.584;2022-12-07T00:37:34;101596.84;;;18.69;41.22
69749;BME280;57019;52.354;6.584;2022-12-07T00:40:00;101584.44;;;18.71;41.25
69749;BME280;57019;52.354;6.584;2022-12-07T00:42:25;101587.84;;;18.72;40.97
69749;BME280;57019;52.354;6.584;2022-12-07T00:44:51;101595.19;;;18.68;41.21
69749;BME280;57019;52.354;6.584;2022-12-07T00:47:16;101594.91;;;18.71;41.09
69749;BME280;57019;52.354;6.584;2022-12-07T00:49:41;101595.88;;;18.70;40.94
69749;BME280;57019;52.354;6.584;2022-12-07T00:52:07;101604.69;;;18.69;40.99
69749;BME280;57019;52.354;6.584;2022-12-07T00:54:32;101595.03;;;18.70;40.95
69749;BME280;57019;52.354;6.584;2022-12-07T00:56:57;101600.41;;;18.68;40.99
69749;BME280;57019;52.354;6.584;2022-12-07T00:59:23;101592.56;;;18.68;40.83
69749;BME280;57019;52.354;6.584;2022-12-07T01:01:48;101590.94;;;18.67;40.65
69749;BME280;57019;52.354;6.584;2022-12-07T01:04:14;101596.47;;;18.64;40.90
69749;BME280;57019;52.354;6.584;2022-12-07T01:06:39;101596.63;;;18.62;40.85
69749;BME280;57019;52.354;6.584;2022-12-07T01:09:04;101587.50;;;18.67;40.86
69749;BME280;57019;52.354;6.584;2022-12-07T01:11:31;101588.34;;;18.67;40.45
69749;BME280;57019;52.354;6.584;2022-12-07T01:13:58;101578.16;;;18.64;40.79
69749;BME280;57019;52.354;6.584;2022-12-07T01:16:26;101582.03;;;18.60;40.34
69749;BME280;57019;52.354;6.584;2022-12-07T01:18:54;101580.94;;;18.62;40.52
69749;BME280;57019;52.354;6.584;2022-12-07T01:21:25;101587.00;;;18.63;40.53
69749;BME280;57019;52.354;6.584;2022-12-07T01:23:51;101583.38;;;18.64;40.31
69749;BME280;57019;52.354;6.584;2022-12-07T01:26:20;101576.66;;;18.61;40.26
69749;BME280;57019;52.354;6.584;2022-12-07T01:28:46;101578.31;;;18.62;40.35
69749;BME280;57019;52.354;6.584;2022-12-07T01:31:18;101582.56;;;18.63;40.25
69749;BME280;57019;52.354;6.584;2022-12-07T01:33:45;101588.94;;;18.61;40.27
69749;BME280;57019;52.354;6.584;2022-12-07T01:36:16;101586.63;;;18.58;40.49
69749;BME280;57019;52.354;6.584;2022-12-07T01:38:42;101589.91;;;18.60;40.36
69749;BME280;57019;52.354;6.584;2022-12-07T01:41:08;101586.31;;;18.61;40.27
69749;BME280;57019;52.354;6.584;2022-12-07T01:43:34;101585.34;;;18.62;39.87
69749;BME280;57019;52.354;6.584;2022-12-07T01:46:01;101581.75;;;18.63;40.23
69749;BME280;57019;52.354;6.584;2022-12-07T01:48:36;101589.91;;;18.60;40.03
69749;BME280;57019;52.354;6.584;2022-12-07T01:51:06;101592.34;;;18.61;39.89
69749;BME280;57019;52.354;6.584;2022-12-07T01:53:36;101594.47;;;18.58;40.05
69749;BME280;57019;52.354;6.584;2022-12-07T01:56:05;101581.84;;;18.53;39.87
69749;BME280;57019;52.354;6.584;2022-12-07T01:58:31;101587.06;;;18.53;40.03
69749;BME280;57019;52.354;6.584;2022-12-07T02:00:57;101587.91;;;18.54;39.95
69749;BME280;57019;52.354;6.584;2022-12-07T02:03:36;101584.59;;;18.52;39.96
69749;BME280;57019;52.354;6.584;2022-12-07T02:06:04;101588.88;;;18.53;39.95
69749;BME280;57019;52.354;6.584;2022-12-07T02:08:30;101581.34;;;18.50;40.12
69749;BME280;57019;52.354;6.584;2022-12-07T02:10:55;101581.66;;;18.46;40.09
69749;BME280;57019;52.354;6.584;2022-12-07T02:13:26;101581.94;;;18.43;40.20
69749;BME280;57019;52.354;6.584;2022-12-07T02:29:33;101581.13;;;18.43;39.88
69749;BME280;57019;52.354;6.584;2022-12-07T02:34:50;101573.44;;;18.41;39.81
69749;BME280;57019;52.354;6.584;2022-12-07T02:42:53;101580.31;;;18.42;39.82
69749;BME280;57019;52.354;6.584;2022-12-07T02:45:22;101575.38;;;18.39;39.81
69749;BME280;57019;52.354;6.584;2022-12-07T02:47:51;101575.38;;;18.39;39.89
69749;BME280;57019;52.354;6.584;2022-12-07T02:50:20;101572.75;;;18.39;39.69
69749;BME280;57019;52.354;6.584;2022-12-07T02:52:45;101574.03;;;18.35;39.73
69749;BME280;57019;52.354;6.584;2022-12-07T02:55:11;101573.75;;;18.38;39.68
69749;BME280;57019;52.354;6.584;2022-12-07T02:58:04;101577.63;;;18.34;39.55
69749;BME280;57019;52.354;6.584;2022-12-07T03:00:39;101570.44;;;18.36;39.45
69749;BME280;57019;52.354;6.584;2022-12-07T03:03:10;101579.88;;;18.29;39.82
69749;BME280;57019;52.354;6.584;2022-12-07T03:08:14;101578.75;;;18.31;39.58
69749;BME280;57019;52.354;6.584;2022-12-07T03:13:28;101576.56;;;18.27;39.63
69749;BME280;57019;52.354;6.584;2022-12-07T03:18:58;101582.66;;;18.27;39.57
69749;BME280;57019;52.354;6.584;2022-12-07T03:21:35;101582.91;;;18.24;39.42
69749;BME280;57019;52.354;6.584;2022-12-07T03:24:09;101580.19;;;18.26;39.53
69749;BME280;57019;52.354;6.584;2022-12-07T03:26:39;101578.38;;;18.26;39.32
69749;BME280;57019;52.354;6.584;2022-12-07T03:29:10;101562.84;;;18.25;39.63
69749;BME280;57019;52.354;6.584;2022-12-07T03:31:43;101556.66;;;18.26;39.34
69749;BME280;57019;52.354;6.584;2022-12-07T03:34:32;101551.06;;;18.21;39.33
69749;BME280;57019;52.354;6.584;2022-12-07T03:37:05;101554.31;;;18.23;39.34
69749;BME280;57019;52.354;6.584;2022-12-07T03:39:51;101546.63;;;18.21;39.34
69749;BME280;57019;52.354;6.584;2022-12-07T03:42:18;101549.41;;;18.20;39.36
69749;BME280;57019;52.354;6.584;2022-12-07T03:44:44;101543.06;;;18.22;39.38
69749;BME280;57019;52.354;6.584;2022-12-07T03:49:51;101547.59;;;18.20;39.29
69749;BME280;57019;52.354;6.584;2022-12-07T03:55:00;101552.97;;;18.19;39.37
69749;BME280;57019;52.354;6.584;2022-12-07T03:57:30;101544.50;;;18.17;39.32
69749;BME280;57019;52.354;6.584;2022-12-07T03:59:58;101558.53;;;18.16;39.41
69749;BME280;57019;52.354;6.584;2022-12-07T04:02:27;101556.88;;;18.14;39.32
69749;BME280;57019;52.354;6.584;2022-12-07T04:04:53;101543.81;;;18.14;39.19
69749;BME280;57019;52.354;6.584;2022-12-07T04:07:18;101550.03;;;18.13;39.23
69749;BME280;57019;52.354;6.584;2022-12-07T04:09:44;101553.59;;;18.12;39.37
69749;BME280;57019;52.354;6.584;2022-12-07T04:12:10;101551.94;;;18.11;39.19
69749;BME280;57019;52.354;6.584;2022-12-07T04:14:35;101547.69;;;18.10;39.29
69749;BME280;57019;52.354;6.584;2022-12-07T04:17:01;101542.47;;;18.10;39.12
69749;BME280;57019;52.354;6.584;2022-12-07T04:19:29;101544.41;;;18.08;39.31
69749;BME280;57019;52.354;6.584;2022-12-07T04:21:56;101542.63;;;18.09;39.17
69749;BME280;57019;52.354;6.584;2022-12-07T04:24:22;101541.81;;;18.08;39.03
69749;BME280;57019;52.354;6.584;2022-12-07T04:26:48;101539.19;;;18.08;39.17
69749;BME280;57019;52.354;6.584;2022-12-07T04:29:14;101541.81;;;18.08;39.23
69749;BME280;57019;52.354;6.584;2022-12-07T04:31:40;101549.28;;;18.03;39.13
69749;BME280;57019;52.354;6.584;2022-12-07T04:34:06;101549.28;;;18.03;39.39
69749;BME280;57019;52.354;6.584;2022-12-07T04:36:31;101545.84;;;18.03;39.20
69749;BME280;57019;52.354;6.584;2022-12-07T04:38:57;101541.50;;;18.11;39.20
69749;BME280;57019;52.354;6.584;2022-12-07T04:41:23;101539.25;;;18.17;39.08
69749;BME280;57019;52.354;6.584;2022-12-07T04:43:57;101544.56;;;18.25;38.91
69749;BME280;57019;52.354;6.584;2022-12-07T04:46:24;101548.88;;;18.34;38.93
69749;BME280;57019;52.354;6.584;2022-12-07T04:48:50;101543.72;;;18.42;38.76
69749;BME280;57019;52.354;6.584;2022-12-07T04:51:19;101539.50;;;18.50;38.43
69749;BME280;57019;52.354;6.584;2022-12-07T04:53:45;101538.59;;;18.59;38.39
69749;BME280;57019;52.354;6.584;2022-12-07T04:56:10;101544.00;;;18.65;38.46
69749;BME280;57019;52.354;6.584;2022-12-07T04:58:36;101543.22;;;18.73;38.30
69749;BME280;57019;52.354;6.584;2022-12-07T05:01:01;101539.00;;;18.80;37.89
69749;BME280;57019;52.354;6.584;2022-12-07T05:03:26;101543.50;;;18.88;37.86
69749;BME280;57019;52.354;6.584;2022-12-07T05:05:53;101540.13;;;18.96;37.61
69749;BME280;57019;52.354;6.584;2022-12-07T05:08:18;101537.53;;;19.04;37.49
69749;BME280;57019;52.354;6.584;2022-12-07T05:10:44;101529.56;;;19.14;37.24
69749;BME280;57019;52.354;6.584;2022-12-07T05:13:09;101529.41;;;19.24;37.09
69749;BME280;57019;52.354;6.584;2022-12-07T05:15:34;101536.63;;;19.30;37.18
69749;BME280;57019;52.354;6.584;2022-12-07T05:18:00;101529.13;;;19.35;36.96
69749;BME280;57019;52.354;6.584;2022-12-07T05:20:26;101537.00;;;19.43;36.77
69749;BME280;57019;52.354;6.584;2022-12-07T05:22:51;101527.50;;;19.50;36.58
69749;BME280;57019;52.354;6.584;2022-12-07T05:25:16;101532.75;;;19.59;36.56
69749;BME280;57019;52.354;6.584;2022-12-07T05:27:41;101536.06;;;19.69;36.32
69749;BME280;57019;52.354;6.584;2022-12-07T05:30:07;101530.84;;;19.77;36.10
69749;BME280;57019;52.354;6.584;2022-12-07T05:32:33;101537.44;;;19.81;36.16
69749;BME280;57019;52.354;6.584;2022-12-07T05:34:58;101543.81;;;19.87;36.07
69749;BME280;57019;52.354;6.584;2022-12-07T05:37:25;101543.16;;;19.93;36.16
69749;BME280;57019;52.354;6.584;2022-12-07T05:39:50;101534.81;;;19.98;36.16
69749;BME280;57019;52.354;6.584;2022-12-07T05:42:15;101546.09;;;19.98;36.20
69749;BME280;57019;52.354;6.584;2022-12-07T05:44:44;101541.84;;;19.97;36.38
69749;BME280;57019;52.354;6.584;2022-12-07T05:47:11;101533.84;;;19.91;36.35
69749;BME280;57019;52.354;6.584;2022-12-07T05:49:36;101542.00;;;19.88;36.05
69749;BME280;57019;52.354;6.584;2022-12-07T05:52:17;101533.16;;;19.80;36.11
69749;BME280;57019;52.354;6.584;2022-12-07T05:54:43;101527.72;;;19.74;36.56
69749;BME280;57019;52.354;6.584;2022-12-07T05:57:08;101523.63;;;19.71;36.46
69749;BME280;57019;52.354;6.584;2022-12-07T05:59:33;101532.13;;;19.65;36.48
69749;BME280;57019;52.354;6.584;2022-12-07T06:02:00;101519.03;;;19.65;36.34
69749;BME280;57019;52.354;6.584;2022-12-07T06:04:29;101523.31;;;19.66;36.37
69749;BME280;57019;52.354;6.584;2022-12-07T06:06:55;101518.53;;;19.70;36.57
69749;BME280;57019;52.354;6.584;2022-12-07T06:09:22;101520.03;;;19.72;36.63
69749;BME280;57019;52.354;6.584;2022-12-07T06:11:47;101514.66;;;19.82;36.59
69749;BME280;57019;52.354;6.584;2022-12-07T06:14:31;101523.81;;;19.94;36.51
69749;BME280;57019;52.354;6.584;2022-12-07T06:16:57;101519.44;;;20.03;36.38
69749;BME280;57019;52.354;6.584;2022-12-07T06:19:23;101524.66;;;20.11;36.12
69749;BME280;57019;52.354;6.584;2022-12-07T06:21:48;101528.25;;;20.19;35.96
69749;BME280;57019;52.354;6.584;2022-12-07T06:24:15;101520.06;;;20.22;35.96
69749;BME280;57019;52.354;6.584;2022-12-07T06:26:41;101520.72;;;20.15;36.16
69749;BME280;57019;52.354;6.584;2022-12-07T06:29:06;101517.28;;;20.07;36.43
69749;BME280;57019;52.354;6.584;2022-12-07T06:31:32;101518.13;;;19.99;36.47
69749;BME280;57019;52.354;6.584;2022-12-07T06:34:35;101515.16;;;19.94;36.56
69749;BME280;57019;52.354;6.584;2022-12-07T06:36:54;101520.41;;;19.86;36.78
69749;BME280;57019;52.354;6.584;2022-12-07T06:39:25;101519.69;;;19.75;37.06
69749;BME280;57019;52.354;6.584;2022-12-07T06:41:51;101526.56;;;19.76;37.10
69749;BME280;57019;52.354;6.584;2022-12-07T06:44:17;101527.13;;;19.80;37.24
69749;BME280;57019;52.354;6.584;2022-12-07T06:46:43;101534.09;;;19.79;36.89
69749;BME280;57019;52.354;6.584;2022-12-07T06:49:08;101532.34;;;19.80;37.25
69749;BME280;57019;52.354;6.584;2022-12-07T06:51:34;101533.13;;;19.72;37.28
69749;BME280;57019;52.354;6.584;2022-12-07T06:54:02;101526.91;;;19.73;36.91
69749;BME280;57019;52.354;6.584;2022-12-07T06:56:28;101532.78;;;19.75;37.14
69749;BME280;57019;52.354;6.584;2022-12-07T06:58:54;101533.16;;;19.80;36.70
69749;BME280;57019;52.354;6.584;2022-12-07T07:01:19;101538.56;;;19.87;36.41
69749;BME280;57019;52.354;6.584;2022-12-07T07:03:45;101536.59;;;19.89;36.75
69749;BME280;57019;52.354;6.584;2022-12-07T07:06:12;101535.47;;;19.92;36.62
69749;BME280;57019;52.354;6.584;2022-12-07T07:08:38;101538.41;;;19.97;36.48
69749;BME280;57019;52.354;6.584;2022-12-07T07:11:04;101546.44;;;20.04;36.45
69749;BME280;57019;52.354;6.584;2022-12-07T07:13:30;101544.97;;;20.01;36.50
69749;BME280;57019;52.354;6.584;2022-12-07T07:15:56;101544.16;;;20.00;36.71
69749;BME280;57019;52.354;6.584;2022-12-07T07:18:21;101544.00;;;19.94;36.75
69749;BME280;57019;52.354;6.584;2022-12-07T07:20:47;101544.63;;;19.88;36.82
69749;BME280;57019;52.354;6.584;2022-12-07T07:23:12;101550.38;;;19.83;36.72
69749;BME280;57019;52.354;6.584;2022-12-07T07:25:38;101549.19;;;19.77;36.67
69749;BME280;57019;52.354;6.584;2022-12-07T07:28:04;101546.22;;;19.72;36.75
69749;BME280;57019;52.354;6.584;2022-12-07T07:30:30;101551.63;;;19.71;36.79
69749;BME280;57019;52.354;6.584;2022-12-07T07:33:05;101540.19;;;19.72;36.91
69749;BME280;57019;52.354;6.584;2022-12-07T07:35:32;101537.38;;;19.73;36.92
69749;BME280;57019;52.354;6.584;2022-12-07T07:37:58;101540.06;;;19.81;36.83
69749;BME280;57019;52.354;6.584;2022-12-07T07:40:24;101545.75;;;19.85;36.86
69749;BME280;57019;52.354;6.584;2022-12-07T07:42:51;101548.25;;;19.95;36.49
69749;BME280;57019;52.354;6.584;2022-12-07T07:45:18;101544.47;;;19.97;36.43
69749;BME280;57019;52.354;6.584;2022-12-07T07:47:43;101546.94;;;19.99;36.52
69749;BME280;57019;52.354;6.584;2022-12-07T07:50:09;101541.03;;;19.97;36.46
69749;BME280;57019;52.354;6.584;2022-12-07T07:52:34;101550.88;;;19.95;36.52
69749;BME280;57019;52.354;6.584;2022-12-07T07:55:00;101553.50;;;19.87;36.45
69749;BME280;57019;52.354;6.584;2022-12-07T07:57:25;101553.78;;;19.83;36.71
69749;BME280;57019;52.354;6.584;2022-12-07T07:59:50;101557.03;;;19.77;36.76
69749;BME280;57019;52.354;6.584;2022-12-07T08:02:18;101556.69;;;19.72;36.76
69749;BME280;57019;52.354;6.584;2022-12-07T08:04:45;101556.34;;;19.67;36.96
69749;BME280;57019;52.354;6.584;2022-12-07T08:07:10;101562.59;;;19.58;37.02
69749;BME280;57019;52.354;6.584;2022-12-07T08:09:36;101564.19;;;19.50;37.43
69749;BME280;57019;52.354;6.584;2022-12-07T08:12:01;101561.38;;;19.44;37.18
69749;BME280;57019;52.354;6.584;2022-12-07T08:14:27;101565.97;;;19.42;37.15
69749;BME280;57019;52.354;6.584;2022-12-07T08:16:54;101569.72;;;19.39;37.23
69749;BME280;57019;52.354;6.584;2022-12-07T08:19:19;101561.22;;;19.37;37.15
69749;BME280;57019;52.354;6.584;2022-12-07T08:21:44;101567.44;;;19.36;37.16
69749;BME280;57019;52.354;6.584;2022-12-07T08:24:10;101567.09;;;19.39;37.25
69749;BME280;57019;52.354;6.584;2022-12-07T08:26:35;101569.41;;;19.42;37.29
69749;BME280;57019;52.354;6.584;2022-12-07T08:29:01;101569.75;;;19.47;37.32
69749;BME280;57019;52.354;6.584;2022-12-07T08:31:26;101573.53;;;19.53;37.35
69749;BME280;57019;52.354;6.584;2022-12-07T08:33:52;101572.06;;;19.59;37.00
69749;BME280;57019;52.354;6.584;2022-12-07T08:36:18;101577.47;;;19.65;36.96
69749;BME280;57019;52.354;6.584;2022-12-07T08:38:43;101569.47;;;19.67;37.25
69749;BME280;57019;52.354;6.584;2022-12-07T08:41:09;101570.78;;;19.71;37.31
69749;BME280;57019;52.354;6.584;2022-12-07T08:43:35;101584.56;;;19.73;37.55
69749;BME280;57019;52.354;6.584;2022-12-07T08:46:08;101576.19;;;19.70;37.58
69749;BME280;57019;52.354;6.584;2022-12-07T08:48:35;101574.69;;;19.67;37.57
69749;BME280;57019;52.354;6.584;2022-12-07T08:51:02;101575.03;;;19.64;37.86
69749;BME280;57019;52.354;6.584;2022-12-07T08:53:28;101578.63;;;19.63;37.92
69749;BME280;57019;52.354;6.584;2022-12-07T08:55:55;101574.22;;;19.63;37.68
69749;BME280;57019;52.354;6.584;2022-12-07T08:58:21;101578.47;;;19.64;37.71
69749;BME280;57019;52.354;6.584;2022-12-07T09:00:47;101569.16;;;19.70;37.89
69749;BME280;57019;52.354;6.584;2022-12-07T09:03:12;101568.50;;;19.76;37.84
69749;BME280;57019;52.354;6.584;2022-12-07T09:05:37;101561.00;;;19.81;37.55
69749;BME280;57019;52.354;6.584;2022-12-07T09:08:03;101564.28;;;19.83;37.50
69749;BME280;57019;52.354;6.584;2022-12-07T09:10:28;101563.81;;;19.88;37.60
69749;BME280;57019;52.354;6.584;2022-12-07T09:12:54;101557.72;;;19.88;37.69
69749;BME280;57019;52.354;6.584;2022-12-07T09:15:19;101560.84;;;19.83;37.57
69749;BME280;57019;52.354;6.584;2022-12-07T09:17:45;101561.81;;;19.82;37.81
69749;BME280;57019;52.354;6.584;2022-12-07T09:20:10;101559.84;;;19.76;38.04
69749;BME280;57019;52.354;6.584;2022-12-07T09:22:36;101563.59;;;19.73;38.25
69749;BME280;57019;52.354;6.584;2022-12-07T09:25:03;101560.28;;;19.71;38.22
69749;BME280;57019;52.354;6.584;2022-12-07T09:27:28;101566.69;;;19.69;38.12
69749;BME280;57019;52.354;6.584;2022-12-07T09:29:54;101566.19;;;19.65;38.72
69749;BME280;57019;52.354;6.584;2022-12-07T09:32:20;101573.38;;;19.63;38.92
69749;BME280;57019;52.354;6.584;2022-12-07T09:34:45;101567.66;;;19.59;39.08
69749;BME280;57019;52.354;6.584;2022-12-07T09:37:11;101566.81;;;19.59;38.94
69749;BME280;57019;52.354;6.584;2022-12-07T09:39:40;101571.75;;;19.62;38.67
69749;BME280;57019;52.354;6.584;2022-12-07T09:42:06;101570.59;;;19.64;39.13
69749;BME280;57019;52.354;6.584;2022-12-07T09:44:33;101572.75;;;19.69;38.90
69749;BME280;57019;52.354;6.584;2022-12-07T09:46:59;101577.03;;;19.78;38.62
69749;BME280;57019;52.354;6.584;2022-12-07T09:49:25;101569.84;;;19.80;38.60
69749;BME280;57019;52.354;6.584;2022-12-07T09:54:35;101576.25;;;20.03;38.39
69749;BME280;57019;52.354;6.584;2022-12-07T09:57:02;101571.50;;;19.98;38.94
69749;BME280;57019;52.354;6.584;2022-12-07T09:59:27;101571.50;;;19.98;38.84
69749;BME280;57019;52.354;6.584;2022-12-07T10:01:53;101567.91;;;19.99;38.99
69749;BME280;57019;52.354;6.584;2022-12-07T10:04:22;101561.38;;;19.95;39.00
69749;BME280;57019;52.354;6.584;2022-12-07T10:06:49;101558.41;;;19.90;39.10
69749;BME280;57019;52.354;6.584;2022-12-07T10:09:18;101563.97;;;19.87;39.40
69749;BME280;57019;52.354;6.584;2022-12-07T10:12:02;101555.44;;;19.85;39.55
69749;BME280;57019;52.354;6.584;2022-12-07T10:14:30;101555.06;;;19.79;39.57
69749;BME280;57019;52.354;6.584;2022-12-07T10:16:56;101553.75;;;19.75;39.57
69749;BME280;57019;52.354;6.584;2022-12-07T10:19:25;101551.47;;;19.72;40.08
69749;BME280;57019;52.354;6.584;2022-12-07T10:22:03;101557.03;;;19.69;39.87
69749;BME280;57019;52.354;6.584;2022-12-07T10:24:30;101553.56;;;19.69;40.29
69749;BME280;57019;52.354;6.584;2022-12-07T10:26:56;101540.19;;;19.72;40.26
69749;BME280;57019;52.354;6.584;2022-12-07T10:29:34;101549.50;;;19.74;40.03
69749;BME280;57019;52.354;6.584;2022-12-07T10:34:37;101541.69;;;19.82;39.67
69749;BME280;57019;52.354;6.584;2022-12-07T10:39:50;101531.53;;;20.04;39.75
69749;BME280;57019;52.354;6.584;2022-12-07T10:44:48;101532.66;;;20.18;39.70
69749;BME280;57019;52.354;6.584;2022-12-07T10:47:32;101534.47;;;20.17;39.54
69749;BME280;57019;52.354;6.584;2022-12-07T10:50:26;101526.28;;;20.04;39.55
69749;BME280;57019;52.354;6.584;2022-12-07T10:55:58;101512.88;;;19.91;40.11
69749;BME280;57019;52.354;6.584;2022-12-07T11:01:29;101510.38;;;19.81;40.29
69749;BME280;57019;52.354;6.584;2022-12-07T11:07:07;101508.91;;;19.70;40.44
69749;BME280;57019;52.354;6.584;2022-12-07T11:09:56;101502.00;;;19.69;40.39
69749;BME280;57019;52.354;6.584;2022-12-07T11:18:01;101486.97;;;19.88;40.23
69749;BME280;57019;52.354;6.584;2022-12-07T11:23:49;101482.41;;;19.98;39.91
69749;BME280;57019;52.354;6.584;2022-12-07T11:26:41;101489.56;;;20.12;39.81
69749;BME280;57019;52.354;6.584;2022-12-07T11:32:37;101481.72;;;20.12;40.23
69749;BME280;57019;52.354;6.584;2022-12-07T11:40:39;101472.06;;;20.05;40.71
69749;BME280;57019;52.354;6.584;2022-12-07T11:43:26;101468.94;;;20.01;40.50
69749;BME280;57019;52.354;6.584;2022-12-07T11:51:18;101467.31;;;19.83;41.13
69749;BME280;57019;52.354;6.584;2022-12-07T11:53:58;101465.69;;;19.82;40.95
69749;BME280;57019;52.354;6.584;2022-12-07T11:56:28;101458.13;;;19.79;40.89
69749;BME280;57019;52.354;6.584;2022-12-07T12:07:40;101459.13;;;19.70;40.53
69749;BME280;57019;52.354;6.584;2022-12-07T12:13:05;101458.44;;;19.76;40.33
69749;BME280;57019;52.354;6.584;2022-12-07T12:16:04;101456.19;;;19.81;40.45
69749;BME280;57019;52.354;6.584;2022-12-07T12:21:11;101445.38;;;19.85;39.93
69749;BME280;57019;52.354;6.584;2022-12-07T12:26:20;101445.88;;;19.80;40.64
69749;BME280;57019;52.354;6.584;2022-12-07T12:28:59;101437.16;;;19.79;40.35
69749;BME280;57019;52.354;6.584;2022-12-07T12:33:54;101435.84;;;19.92;40.44
69749;BME280;57019;52.354;6.584;2022-12-07T12:50:35;101409.25;;;20.28;39.28
69749;BME280;57019;52.354;6.584;2022-12-07T13:00:44;101421.78;;;19.93;39.95
69749;BME280;57019;52.354;6.584;2022-12-07T13:03:26;101423.25;;;19.87;40.19
69749;BME280;57019;52.354;6.584;2022-12-07T13:06:31;101414.28;;;19.81;40.04
69749;BME280;57019;52.354;6.584;2022-12-07T13:09:00;101419.31;;;19.75;39.86
69749;BME280;57019;52.354;6.584;2022-12-07T13:11:37;101420.47;;;19.72;39.85
69749;BME280;57019;52.354;6.584;2022-12-07T13:17:09;101400.81;;;19.76;41.27
69749;BME280;57019;52.354;6.584;2022-12-07T13:24:57;101388.66;;;20.00;41.47
69749;BME280;57019;52.354;6.584;2022-12-07T13:27:25;101388.66;;;20.08;41.17
69749;BME280;57019;52.354;6.584;2022-12-07T13:29:52;101386.00;;;20.16;41.07
69749;BME280;57019;52.354;6.584;2022-12-07T13:32:32;101382.41;;;20.17;40.90
69749;BME280;57019;52.354;6.584;2022-12-07T13:34:57;101377.16;;;20.17;41.27
69749;BME280;57019;52.354;6.584;2022-12-07T13:37:27;101376.34;;;20.17;41.00
69749;BME280;57019;52.354;6.584;2022-12-07T13:39:59;101375.53;;;20.16;41.13
69749;BME280;57019;52.354;6.584;2022-12-07T13:42:31;101377.50;;;20.14;41.39
69749;BME280;57019;52.354;6.584;2022-12-07T13:44:59;101368.97;;;20.12;40.95
69749;BME280;57019;52.354;6.584;2022-12-07T13:47:36;101364.41;;;20.06;41.09
69749;BME280;57019;52.354;6.584;2022-12-07T13:50:27;101367.06;;;19.98;41.15
69749;BME280;57019;52.354;6.584;2022-12-07T13:52:58;101368.03;;;19.97;41.25
69749;BME280;57019;52.354;6.584;2022-12-07T13:55:24;101363.31;;;19.92;41.20
69749;BME280;57019;52.354;6.584;2022-12-07T13:57:52;101355.31;;;19.86;40.98
69749;BME280;57019;52.354;6.584;2022-12-07T14:00:23;101358.25;;;19.82;41.29
69749;BME280;57019;52.354;6.584;2022-12-07T14:03:00;101350.69;;;19.79;41.14
69749;BME280;57019;52.354;6.584;2022-12-07T14:05:28;101356.63;;;19.81;41.44
69749;BME280;57019;52.354;6.584;2022-12-07T14:10:33;101354.31;;;19.87;41.01
69749;BME280;57019;52.354;6.584;2022-12-07T14:13:01;101352.31;;;19.97;41.06
69749;BME280;57019;52.354;6.584;2022-12-07T14:15:29;101356.41;;;19.99;41.10
69749;BME280;57019;52.354;6.584;2022-12-07T14:17:56;101350.34;;;19.99;40.78
69749;BME280;57019;52.354;6.584;2022-12-07T14:21:02;101347.75;;;19.99;40.87
69749;BME280;57019;52.354;6.584;2022-12-07T14:23:27;101351.34;;;19.98;40.77
69749;BME280;57019;52.354;6.584;2022-12-07T14:25:53;101345.59;;;19.94;40.83
69749;BME280;57019;52.354;6.584;2022-12-07T14:28:27;101344.31;;;19.90;40.76
69749;BME280;57019;52.354;6.584;2022-12-07T14:30:52;101340.22;;;19.88;40.88
69749;BME280;57019;52.354;6.584;2022-12-07T14:33:26;101340.22;;;19.88;40.91
69749;BME280;57019;52.354;6.584;2022-12-07T14:35:52;101354.47;;;19.85;41.38
69749;BME280;57019;52.354;6.584;2022-12-07T14:38:23;101352.00;;;19.83;41.21
69749;BME280;57019;52.354;6.584;2022-12-07T14:40:49;101338.59;;;19.87;40.92
69749;BME280;57019;52.354;6.584;2022-12-07T14:43:16;101340.22;;;19.88;41.05
69749;BME280;57019;52.354;6.584;2022-12-07T14:45:42;101338.56;;;19.95;40.91
69749;BME280;57019;52.354;6.584;2022-12-07T14:48:12;101330.38;;;19.98;40.81
69749;BME280;57019;52.354;6.584;2022-12-07T14:50:42;101338.22;;;20.06;40.48
69749;BME280;57019;52.354;6.584;2022-12-07T14:53:14;101337.69;;;20.11;40.53
69749;BME280;57019;52.354;6.584;2022-12-07T14:55:40;101334.09;;;20.12;40.46
69749;BME280;57019;52.354;6.584;2022-12-07T14:58:05;101323.78;;;20.10;40.72
69749;BME280;57019;52.354;6.584;2022-12-07T15:00:31;101330.66;;;20.11;40.69
69749;BME280;57019;52.354;6.584;2022-12-07T15:02:57;101329.38;;;20.07;40.75
69749;BME280;57019;52.354;6.584;2022-12-07T15:05:22;101327.72;;;20.06;40.88
69749;BME280;57019;52.354;6.584;2022-12-07T15:07:48;101324.63;;;20.03;40.79